Latest Weather Observations for Warburto Point

IDS60801

Issued at 1:01 am CDT Wednesday 29 January 2020 (issued every 10 minutes, with the page automatically refreshed every 10 minutes)

About weather observations | Map of weather stations | Latest weather observations for SA | Other Formats
Station Details ID: 022053 Name: WARBURTO POINT Lat: -34.00 Lon: 137.53 Height: 1.0 m
Data from the previous 72 hours. | See also: Recent months at Warburto Point
Date/Time
CDT
Temp
°C
App
Temp
°C
Dew
Point
°C
Rel
Hum
%
Delta-T
°C
Wind Press
QNH
hPa
Press
MSL
hPa
Rain since
9am
mm
Dir  Spd
km/h
Gust
km/h
Spd
kts
Gust
kts
29/01:00am - - - - - SE 15 19 8 10 - - -
29/12:30am - - - - - SSE 19 22 10 12 - - -
29/12:00am - - - - - SSE 19 24 10 13 - - -
 
Date/Time
CDT
Temp
°C
App
Temp
°C
Dew
Point
°C
Rel
Hum
%
Delta-T
°C
Wind Press
QNH
hPa
Press
MSL
hPa
Rain since
9am
mm
Dir  Spd
km/h
Gust
km/h
Spd
kts
Gust
kts
28/11:30pm - - - - - SE 17 24 9 13 - - -
28/11:00pm - - - - - ESE 15 15 8 8 - - -
28/10:30pm - - - - - ESE 15 17 8 9 - - -
28/10:00pm - - - - - S 15 19 8 10 - - -
28/09:30pm - - - - - S 20 26 11 14 - - -
28/09:00pm - - - - - S 24 30 13 16 - - -
28/08:30pm - - - - - S 26 30 14 16 - - -
28/08:00pm - - - - - SSW 28 33 15 18 - - -
28/07:30pm - - - - - SSW 22 30 12 16 - - -
28/07:00pm - - - - - SSW 26 33 14 18 - - -
28/06:30pm - - - - - SSW 26 30 14 16 - - -
28/06:00pm - - - - - SSW 28 33 15 18 - - -
28/05:30pm - - - - - SSW 28 33 15 18 - - -
28/05:00pm - - - - - SSW 30 37 16 20 - - -
28/04:30pm - - - - - SSW 32 39 17 21 - - -
28/04:00pm - - - - - SW 32 39 17 21 - - -
28/03:30pm - - - - - SW 28 37 15 20 - - -
28/03:00pm - - - - - SW 28 33 15 18 - - -
28/02:30pm - - - - - SW 26 32 14 17 - - -
28/02:00pm - - - - - SW 28 33 15 18 - - -
28/01:30pm - - - - - SW 30 35 16 19 - - -
28/01:00pm - - - - - SW 24 30 13 16 - - -
28/12:30pm - - - - - SW 22 28 12 15 - - -
28/12:00pm - - - - - SW 20 28 11 15 - - -
28/11:30am - - - - - SW 20 24 11 13 - - -
28/11:00am - - - - - SW 19 24 10 13 - - -
28/10:30am - - - - - SW 15 19 8 10 - - -
28/10:00am - - - - - SSW 11 13 6 7 - - -
28/09:30am - - - - - S 13 17 7 9 - - -
28/09:00am - - - - - SSE 11 13 6 7 - - -
28/08:30am - - - - - S 19 22 10 12 - - -
28/08:00am - - - - - S 13 17 7 9 - - -
28/07:30am - - - - - SSE 13 17 7 9 - - -
28/07:00am - - - - - SSE 11 17 6 9 - - -
28/06:30am - - - - - SE 6 11 3 6 - - -
28/06:00am - - - - - ESE 7 7 4 4 - - -
28/05:30am - - - - - SE 11 13 6 7 - - -
28/05:00am - - - - - SE 13 17 7 9 - - -
28/04:30am - - - - - SSE 15 19 8 10 - - -
28/04:00am - - - - - SSE 19 22 10 12 - - -
28/03:30am - - - - - SE 19 24 10 13 - - -
28/03:00am - - - - - SE 13 17 7 9 - - -
28/02:30am - - - - - SSE 19 24 10 13 - - -
28/02:00am - - - - - SSE 26 32 14 17 - - -
28/01:30am - - - - - S 26 32 14 17 - - -
28/01:00am - - - - - S 26 32 14 17 - - -
28/12:30am - - - - - S 24 28 13 15 - - -
28/12:00am - - - - - S 24 28 13 15 - - -
 
Date/Time
CDT
Temp
°C
App
Temp
°C
Dew
Point
°C
Rel
Hum
%
Delta-T
°C
Wind Press
QNH
hPa
Press
MSL
hPa
Rain since
9am
mm
Dir  Spd
km/h
Gust
km/h
Spd
kts
Gust
kts
27/11:30pm - - - - - SSE 26 32 14 17 - - -
27/11:00pm - - - - - S 24 32 13 17 - - -
27/10:30pm - - - - - SSE 26 32 14 17 - - -
27/10:00pm - - - - - SE 24 28 13 15 - - -
27/09:30pm - - - - - SE 22 28 12 15 - - -
27/09:00pm - - - - - S 28 35 15 19 - - -
27/08:30pm - - - - - S 32 37 17 20 - - -
27/08:00pm - - - - - SSW 30 35 16 19 - - -
27/07:30pm - - - - - SSW 35 41 19 22 - - -
27/07:00pm - - - - - SSW 32 41 17 22 - - -
27/06:30pm - - - - - SSW 32 39 17 21 - - -
27/06:00pm - - - - - SSW 32 41 17 22 - - -
27/05:30pm - - - - - SW 32 37 17 20 - - -
27/05:00pm - - - - - SW 33 41 18 22 - - -
27/04:30pm - - - - - SW 35 43 19 23 - - -
27/04:00pm - - - - - SW 32 43 17 23 - - -
27/03:30pm - - - - - SW 35 43 19 23 - - -
27/03:00pm - - - - - SW 33 41 18 22 - - -
27/02:30pm - - - - - SW 32 39 17 21 - - -
27/02:00pm - - - - - SW 33 44 18 24 - - -
27/01:30pm - - - - - SW 35 46 19 25 - - -
27/01:00pm - - - - - SW 30 37 16 20 - - -
27/12:30pm - - - - - SW 32 39 17 21 - - -
27/12:00pm - - - - - SW 33 41 18 22 - - -
27/11:30am - - - - - SW 35 43 19 23 - - -
27/11:00am - - - - - SW 26 32 14 17 - - -
27/10:30am - - - - - SW 22 30 12 16 - - -
27/10:00am - - - - - SSW 15 19 8 10 - - -
27/09:30am - - - - - SSW 9 15 5 8 - - -
27/09:00am - - - - - SSE 11 13 6 7 - - -
27/08:30am - - - - - SSE 15 19 8 10 - - -
27/08:00am - - - - - S 26 32 14 17 - - -
27/07:30am - - - - - S 22 28 12 15 - - -
27/07:00am - - - - - S 19 24 10 13 - - -
27/06:30am - - - - - S 20 26 11 14 - - -
27/06:00am - - - - - ESE 11 13 6 7 - - -
27/05:30am - - - - - SE 17 22 9 12 - - -
27/05:00am - - - - - SSE 17 22 9 12 - - -
27/04:30am - - - - - S 22 28 12 15 - - -
27/04:00am - - - - - S 22 28 12 15 - - -
27/03:30am - - - - - S 20 26 11 14 - - -
27/03:00am - - - - - S 17 20 9 11 - - -
27/02:30am - - - - - SSE 13 15 7 8 - - -
27/02:00am - - - - - SSE 13 17 7 9 - - -
27/01:30am - - - - - SSE 17 20 9 11 - - -
27/01:00am - - - - - S 24 32 13 17 - - -
27/12:30am - - - - - SSE 24 30 13 16 - - -
27/12:00am - - - - - S 30 37 16 20 - - -
 
Date/Time
CDT
Temp
°C
App
Temp
°C
Dew
Point
°C
Rel
Hum
%
Delta-T
°C
Wind Press
QNH
hPa
Press
MSL
hPa
Rain since
9am
mm
Dir  Spd
km/h
Gust
km/h
Spd
kts
Gust
kts
26/11:30pm - - - - - S 28 35 15 19 - - -
26/11:00pm - - - - - S 26 33 14 18 - - -
26/10:30pm - - - - - SSE 19 24 10 13 - - -
26/10:00pm - - - - - S 22 28 12 15 - - -
26/09:30pm - - - - - SSW 26 32 14 17 - - -
26/09:00pm - - - - - SSW 30 35 16 19 - - -
26/08:30pm - - - - - SSW 26 33 14 18 - - -
26/08:00pm - - - - - SSW 30 35 16 19 - - -
26/07:30pm - - - - - SSW 30 37 16 20 - - -
26/07:00pm - - - - - SSW 32 37 17 20 - - -
26/06:30pm - - - - - SSW 28 35 15 19 - - -
26/06:00pm - - - - - SSW 30 37 16 20 - - -
26/05:30pm - - - - - SSW 32 43 17 23 - - -
26/05:00pm - - - - - SSW 35 43 19 23 - - -
26/04:30pm - - - - - SW 32 37 17 20 - - -
26/04:00pm - - - - - SW 33 41 18 22 - - -
26/03:30pm - - - - - SW 32 37 17 20 - - -
26/03:00pm - - - - - SW 30 35 16 19 - - -
26/02:30pm - - - - - SW 32 39 17 21 - - -
26/02:00pm - - - - - SW 24 32 13 17 - - -
26/01:30pm - - - - - SW 30 35 16 19 - - -
26/01:00pm - - - - - SW 28 33 15 18 - - -
26/12:30pm - - - - - SW 24 30 13 16 - - -
26/12:00pm - - - - - SW 24 30 13 16 - - -
26/11:30am - - - - - SW 19 24 10 13 - - -
26/11:00am - - - - - SW 17 22 9 12 - - -
26/10:30am - - - - - SW 11 15 6 8 - - -
26/10:00am - - - - - S 11 15 6 8 - - -
26/09:30am - - - - - SE 9 13 5 7 - - -
26/09:00am - - - - - SE 13 17 7 9 - - -
26/08:30am - - - - - SSE 15 20 8 11 - - -
26/08:00am - - - - - SE 17 20 9 11 - - -
26/07:30am - - - - - SE 17 20 9 11 - - -
26/07:00am - - - - - SE 17 20 9 11 - - -
26/06:30am - - - - - SSE 17 22 9 12 - - -
26/06:00am - - - - - SSE 15 19 8 10 - - -
26/05:30am - - - - - E 11 11 6 6 - - -
26/05:00am - - - - - E 9 15 5 8 - - -
26/04:30am - - - - - SE 11 15 6 8 - - -
26/04:00am - - - - - SSE 13 15 7 8 - - -
26/03:30am - - - - - S 15 19 8 10 - - -
26/03:00am - - - - - S 15 19 8 10 - - -
26/02:30am - - - - - SSE 15 19 8 10 - - -
26/02:00am - - - - - SSE 15 19 8 10 - - -
26/01:30am - - - - - SSE 13 17 7 9 - - -

Other formats

Comma delimited format used in spreadsheet applications
http://www.bom.gov.au/fwo/IDS60801/IDS60801.94666.axf

JavaScript Object Notation format (JSON) in row-major order
http://www.bom.gov.au/fwo/IDS60801/IDS60801.94666.json

Data quality

Most of these data are generated automatically and are frequently updated. Quality checks on data are not normally performed. It is possible for incorrect values to appear. Refer to information at About Latest Weather Observations and please check the disclaimer before using these data.